北京 の空港の天気 - METARとTAF

北京首都国際空港 ( ZBAA / PEK ) - 中国 北京市
飛行場実況気象(Metar)
観測時間01/22 02:00 CST (01/21 18:00 UTC)
風向・風速北 3m/s
視程8000m
天気現象弱い雪
なし
気温-6℃
湿度86%
気圧1023hPa
METARZBAA 211800Z 36003MPS 8000 -SN NSC M06/M08 Q1023 NOSIG
過去の天気等 Google飛行場航空写真 Wunderground天気予報

過去48時間のMETAR

飛行場予報(TAF)
発表時間: 1/21 23:20 CST (1/21 15:20 UTC)
予報対象時間: 22日2時 CST ~ 23日2時 CST
風向・風速東南東 4m/s
視程2,700m
天気現象弱い雪 もや
なし
22日9時 CST ~ 22日10時 CST に徐々に
視程5,000m
天気現象もや
TAF ZBAA 211520Z 2118/2218 12004MPS 2700 -SN BR NSC TXM02/06Z TNM10/17Z
BECMG 2201/2202 5000 BR